createdAt,value
2023-02-17T00:00:44.106Z,20.73
2023-02-17T00:02:45.613Z,21.55
2023-02-17T00:04:47.124Z,22.00
2023-02-17T00:06:48.604Z,21.25
2023-02-17T00:08:50.504Z,20.65
2023-02-17T00:10:56.926Z,20.65
2023-02-17T00:12:58.390Z,20.70
2023-02-17T00:14:59.845Z,19.83
2023-02-17T00:17:01.300Z,20.13
2023-02-17T00:19:02.817Z,20.23
2023-02-17T00:21:14.575Z,19.88
2023-02-17T00:23:16.240Z,17.90
2023-02-17T00:25:17.756Z,18.42
2023-02-17T00:27:19.934Z,18.80
2023-02-17T00:29:21.712Z,17.88
2023-02-17T00:31:23.882Z,18.52
2023-02-17T00:33:25.596Z,17.25
2023-02-17T00:35:27.133Z,17.75
2023-02-17T00:37:28.598Z,16.70
2023-02-17T00:39:30.082Z,16.52
2023-02-17T00:41:32.173Z,17.23
2023-02-17T00:43:33.731Z,17.23
2023-02-17T00:45:35.189Z,16.13
2023-02-17T00:47:36.678Z,17.38
2023-02-17T00:49:38.262Z,16.48
2023-02-17T00:51:39.792Z,17.30
2023-02-17T00:53:41.530Z,16.23
2023-02-17T00:55:43.026Z,16.52
2023-02-17T00:57:44.494Z,16.25
2023-02-17T00:59:45.977Z,16.40
2023-02-17T01:01:47.643Z,15.48
2023-02-17T01:03:49.130Z,14.38
2023-02-17T01:05:50.986Z,15.55
2023-02-17T01:07:52.453Z,14.25
2023-02-17T01:09:53.898Z,15.05
2023-02-17T01:11:55.453Z,15.57
2023-02-17T01:13:57.105Z,15.23
2023-02-17T01:15:58.912Z,15.73
2023-02-17T01:18:00.407Z,15.25
2023-02-17T01:20:01.902Z,14.57
2023-02-17T01:22:03.409Z,14.55
2023-02-17T01:24:07.204Z,16.05
2023-02-17T01:26:13.952Z,15.02
2023-02-17T01:28:17.998Z,15.52
2023-02-17T01:30:19.522Z,16.23
2023-02-17T01:32:21.055Z,15.15
2023-02-17T01:34:22.603Z,16.55
2023-02-17T01:36:24.562Z,17.40
2023-02-17T01:38:26.014Z,16.85
2023-02-17T01:40:27.481Z,17.10
2023-02-17T01:42:29.031Z,16.55
2023-02-17T01:44:33.710Z,16.92
2023-02-17T01:46:36.996Z,16.65
2023-02-17T01:48:46.487Z,16.85
2023-02-17T01:50:54.258Z,16.42
2023-02-17T01:52:56.401Z,16.65
2023-02-17T01:55:00.987Z,16.60
2023-02-17T01:57:03.698Z,15.77
2023-02-17T01:59:12.623Z,16.67
2023-02-17T02:01:14.156Z,16.70
2023-02-17T02:03:15.694Z,16.80
2023-02-17T02:05:19.178Z,16.88
2023-02-17T02:07:27.312Z,17.50
2023-02-17T02:09:36.515Z,16.75
2023-02-17T02:11:38.162Z,17.13
2023-02-17T02:13:39.832Z,16.38
2023-02-17T02:15:55.522Z,17.63
2023-02-17T02:18:07.409Z,19.17
2023-02-17T02:20:14.837Z,17.65
2023-02-17T02:22:55.592Z,17.25
2023-02-17T02:25:27.972Z,17.95
2023-02-17T02:27:41.648Z,18.73
2023-02-17T02:29:58.740Z,18.55
2023-02-17T02:32:18.522Z,18.45
2023-02-17T02:34:23.748Z,19.55
2023-02-17T02:36:34.404Z,18.65
2023-02-17T02:38:40.210Z,18.40
2023-02-17T02:40:49.809Z,18.48
2023-02-17T02:42:51.353Z,19.05
2023-02-17T02:44:52.793Z,18.85
2023-02-17T02:47:02.469Z,19.70
2023-02-17T02:49:04.788Z,19.08
2023-02-17T02:51:20.845Z,19.80
2023-02-17T02:54:08.695Z,18.33
2023-02-17T02:56:38.327Z,19.67
2023-02-17T02:59:04.107Z,19.35
2023-02-17T03:01:16.048Z,19.33
2023-02-17T03:03:40.670Z,19.88
2023-02-17T03:06:08.988Z,19.85
2023-02-17T03:08:20.431Z,18.20
2023-02-17T03:10:22.363Z,18.70
2023-02-17T03:12:24.928Z,19.25
2023-02-17T03:14:27.385Z,18.63
2023-02-17T03:16:29.732Z,19.20
2023-02-17T03:18:32.936Z,17.80
2023-02-17T03:20:49.014Z,18.27
2023-02-17T03:22:51.025Z,17.90
2023-02-17T03:24:52.577Z,18.70
2023-02-17T03:26:54.036Z,17.58
2023-02-17T03:28:55.502Z,18.20
2023-02-17T03:30:57.115Z,17.73
2023-02-17T03:32:58.613Z,18.27
2023-02-17T03:35:00.092Z,17.40
2023-02-17T03:37:01.968Z,17.35
2023-02-17T03:39:03.863Z,16.70
2023-02-17T03:41:05.470Z,17.88
2023-02-17T03:43:06.957Z,17.60
2023-02-17T03:45:08.887Z,17.55
2023-02-17T03:47:10.350Z,17.05
2023-02-17T03:49:13.024Z,17.10
2023-02-17T03:51:18.024Z,18.00
2023-02-17T03:53:19.480Z,16.63
2023-02-17T03:55:20.958Z,17.35
2023-02-17T03:57:22.491Z,17.40
2023-02-17T03:59:23.952Z,17.40
2023-02-17T04:01:25.573Z,18.70
2023-02-17T04:03:27.152Z,17.77
2023-02-17T04:05:28.613Z,17.40
2023-02-17T04:07:30.186Z,17.92
2023-02-17T04:09:31.648Z,18.77
2023-02-17T04:11:33.182Z,17.67
2023-02-17T04:13:35.292Z,19.33
2023-02-17T04:15:36.863Z,17.95
2023-02-17T04:17:38.692Z,18.48
2023-02-17T04:19:40.259Z,19.70
2023-02-17T04:21:41.758Z,19.42
2023-02-17T04:23:43.362Z,19.30
2023-02-17T04:25:45.345Z,19.50
2023-02-17T04:27:46.806Z,19.90
2023-02-17T04:29:48.323Z,20.80
2023-02-17T04:31:49.890Z,19.90
2023-02-17T04:33:51.782Z,21.88
2023-02-17T04:35:59.422Z,20.90
2023-02-17T04:38:00.946Z,19.88
2023-02-17T04:40:02.426Z,20.80
2023-02-17T04:42:03.962Z,21.42
2023-02-17T04:44:05.418Z,21.02
2023-02-17T04:46:07.188Z,20.75
2023-02-17T04:48:08.870Z,20.73
2023-02-17T04:50:12.059Z,21.67
2023-02-17T04:52:13.522Z,20.58
2023-02-17T04:54:14.970Z,21.63
2023-02-17T04:56:16.699Z,20.58
2023-02-17T04:58:19.130Z,21.65
2023-02-17T05:00:21.059Z,20.95
2023-02-17T05:02:22.616Z,21.58
2023-02-17T05:04:24.078Z,21.80
2023-02-17T05:06:25.521Z,21.88
2023-02-17T05:08:26.991Z,22.60
2023-02-17T05:10:28.475Z,21.73
2023-02-17T05:12:29.939Z,22.30
2023-02-17T05:14:31.377Z,22.52
2023-02-17T05:16:32.862Z,21.52
2023-02-17T05:18:34.401Z,23.60
2023-02-17T05:20:36.125Z,23.40
2023-02-17T05:22:37.980Z,23.08
2023-02-17T05:24:39.436Z,23.92
2023-02-17T05:26:40.992Z,24.17
2023-02-17T05:28:42.766Z,24.17
2023-02-17T05:30:44.223Z,23.02
2023-02-17T05:32:45.713Z,24.85
2023-02-17T05:34:47.207Z,24.23
2023-02-17T05:36:48.755Z,23.73
2023-02-17T05:38:51.228Z,23.00
2023-02-17T05:40:52.729Z,22.85
2023-02-17T05:42:54.186Z,22.20
2023-02-17T05:44:56.213Z,22.90
2023-02-17T05:46:57.707Z,22.95
2023-02-17T05:48:59.232Z,22.27
2023-02-17T05:51:00.787Z,21.27
2023-02-17T05:53:02.386Z,21.70
2023-02-17T05:55:04.750Z,20.27
2023-02-17T05:57:06.229Z,20.52
2023-02-17T05:59:07.744Z,20.50
2023-02-17T06:01:10.728Z,19.98
2023-02-17T06:03:13.380Z,20.15
2023-02-17T06:05:15.258Z,19.60
2023-02-17T06:07:16.953Z,19.45
2023-02-17T06:09:18.685Z,18.40
2023-02-17T06:11:20.154Z,18.92
2023-02-17T06:13:21.865Z,18.63
2023-02-17T06:15:23.702Z,18.65
2023-02-17T06:17:26.437Z,18.35
2023-02-17T06:19:28.003Z,17.58
2023-02-17T06:21:29.503Z,16.77
2023-02-17T06:23:31.005Z,15.68
2023-02-17T06:25:32.522Z,17.27
2023-02-17T06:27:34.162Z,17.48
2023-02-17T06:29:35.633Z,16.63
2023-02-17T06:31:37.213Z,16.75
2023-02-17T06:33:38.766Z,17.40
2023-02-17T06:35:40.333Z,15.73
2023-02-17T06:37:42.277Z,17.05
2023-02-17T06:39:43.763Z,15.90
2023-02-17T06:41:45.576Z,16.02
2023-02-17T06:43:47.060Z,15.48
2023-02-17T06:45:48.586Z,15.93
2023-02-17T06:47:50.036Z,15.95
2023-02-17T06:49:51.529Z,16.48
2023-02-17T06:51:53.121Z,16.80
2023-02-17T06:53:55.604Z,15.63
2023-02-17T06:55:57.302Z,15.93
2023-02-17T06:57:58.769Z,13.75
2023-02-17T07:00:00.465Z,15.07
2023-02-17T07:02:02.720Z,15.70
2023-02-17T07:04:04.631Z,15.82
2023-02-17T07:06:06.412Z,15.07
2023-02-17T07:08:08.350Z,15.38
2023-02-17T07:10:10.375Z,14.90
2023-02-17T07:12:11.958Z,14.82
2023-02-17T07:14:13.418Z,15.25
2023-02-17T07:16:15.803Z,15.02
2023-02-17T07:18:17.387Z,14.90
2023-02-17T07:20:18.916Z,14.23
2023-02-17T07:22:21.532Z,14.80
2023-02-17T07:24:23.133Z,14.07
2023-02-17T07:26:24.629Z,15.35
2023-02-17T07:28:26.141Z,14.80
2023-02-17T07:30:27.710Z,14.43
2023-02-17T07:32:29.317Z,14.77
2023-02-17T07:34:30.778Z,14.35
2023-02-17T07:36:32.354Z,13.68
2023-02-17T07:38:33.982Z,14.15
2023-02-17T07:40:35.809Z,14.23
2023-02-17T07:42:37.308Z,14.10
2023-02-17T07:44:38.774Z,13.65
2023-02-17T07:46:40.306Z,12.98
2023-02-17T07:48:41.845Z,13.38
2023-02-17T07:50:43.281Z,14.55
2023-02-17T07:52:44.925Z,13.32
2023-02-17T07:54:46.449Z,13.43
2023-02-17T07:56:47.916Z,12.50
2023-02-17T07:58:50.182Z,12.45
2023-02-17T08:00:51.649Z,12.75
2023-02-17T08:02:53.160Z,13.20
2023-02-17T08:04:54.624Z,11.98
2023-02-17T08:06:56.079Z,12.48
2023-02-17T08:09:16.842Z,12.30
2023-02-17T08:11:37.193Z,11.57
2023-02-17T08:13:38.707Z,11.52
2023-02-17T08:15:41.276Z,10.77
2023-02-17T08:17:44.312Z,10.77
2023-02-17T08:19:48.824Z,11.63
2023-02-17T08:21:50.643Z,11.05
2023-02-17T08:23:52.545Z,10.88
2023-02-17T08:25:57.684Z,10.05
2023-02-17T08:27:59.207Z,10.32
2023-02-17T08:30:00.879Z,10.45
2023-02-17T08:32:02.534Z,10.32
2023-02-17T08:34:08.725Z,9.93
2023-02-17T08:36:10.811Z,10.10
2023-02-17T08:38:12.299Z,9.70
2023-02-17T08:40:13.784Z,10.45
2023-02-17T08:42:15.259Z,9.43
2023-02-17T08:44:18.786Z,10.23
2023-02-17T08:46:20.785Z,9.43
2023-02-17T08:48:22.253Z,9.57
2023-02-17T08:50:24.030Z,9.23
2023-02-17T08:52:25.532Z,10.82
2023-02-17T08:54:27.382Z,10.55
2023-02-17T08:56:29.760Z,10.88
2023-02-17T08:58:31.264Z,10.98
2023-02-17T09:00:32.732Z,11.23
2023-02-17T09:02:34.406Z,11.27
2023-02-17T09:04:35.907Z,12.27
2023-02-17T09:06:39.260Z,13.57
2023-02-17T09:08:41.060Z,12.50
2023-02-17T09:10:42.942Z,13.45
2023-02-17T09:12:44.457Z,13.98
2023-02-17T09:14:45.968Z,13.85
2023-02-17T09:16:47.443Z,13.55
2023-02-17T09:18:49.021Z,14.45
2023-02-17T09:20:50.992Z,15.00
2023-02-17T09:22:52.948Z,14.55
2023-02-17T09:24:54.580Z,14.25
2023-02-17T09:26:56.072Z,14.68
2023-02-17T09:28:58.033Z,14.90
2023-02-17T09:30:59.884Z,15.23
2023-02-17T09:33:01.507Z,16.00
2023-02-17T09:35:06.022Z,15.43
2023-02-17T09:37:12.180Z,14.80
2023-02-17T09:39:14.835Z,15.32
2023-02-17T09:41:21.151Z,16.58
2023-02-17T09:43:29.689Z,15.77
2023-02-17T09:45:36.586Z,15.45
2023-02-17T09:47:44.757Z,15.93
2023-02-17T09:49:57.435Z,15.38
2023-02-17T09:52:11.505Z,14.32
2023-02-17T09:54:31.554Z,14.95
2023-02-17T09:56:38.250Z,14.00
2023-02-17T09:58:51.562Z,14.60
2023-02-17T10:01:06.397Z,14.45
2023-02-17T10:03:31.129Z,14.77
2023-02-17T10:05:40.960Z,13.82
2023-02-17T10:07:49.981Z,13.82
2023-02-17T10:10:22.686Z,13.18
2023-02-17T10:12:28.308Z,14.77
2023-02-17T10:14:45.254Z,9.55
2023-02-17T10:16:55.042Z,13.60
2023-02-17T10:19:21.541Z,12.05
2023-02-17T10:21:30.631Z,13.85
2023-02-17T10:23:32.181Z,13.93
2023-02-17T10:25:54.619Z,13.60
2023-02-17T10:28:07.743Z,11.95
2023-02-17T10:30:33.414Z,13.50
2023-02-17T10:32:48.638Z,11.43
2023-02-17T10:35:14.519Z,12.20
2023-02-17T10:37:41.612Z,10.73
2023-02-17T10:39:49.138Z,12.30
2023-02-17T10:41:54.995Z,12.18
2023-02-17T10:43:56.496Z,12.25
2023-02-17T10:46:01.170Z,12.80
2023-02-17T10:48:23.499Z,11.77
2023-02-17T10:50:25.588Z,12.15
2023-02-17T10:52:38.894Z,12.05
2023-02-17T10:54:59.782Z,11.88
2023-02-17T10:57:05.532Z,11.50
2023-02-17T10:59:33.555Z,11.20
2023-02-17T11:01:36.616Z,11.30
2023-02-17T11:03:40.896Z,11.77
2023-02-17T11:05:42.434Z,10.90
2023-02-17T11:07:44.835Z,10.75
2023-02-17T11:09:58.783Z,10.98
2023-02-17T11:12:04.756Z,10.48
2023-02-17T11:14:06.167Z,10.77
2023-02-17T11:16:27.426Z,11.60
2023-02-17T11:18:33.219Z,10.75
2023-02-17T11:20:36.434Z,11.20
2023-02-17T11:22:41.129Z,10.48
2023-02-17T11:24:42.602Z,11.10
2023-02-17T11:26:44.262Z,11.13
2023-02-17T11:28:45.747Z,10.70
2023-02-17T11:30:54.003Z,10.38
2023-02-17T11:32:55.700Z,12.13
2023-02-17T11:34:58.897Z,11.30
2023-02-17T11:37:21.294Z,11.38
2023-02-17T11:39:23.047Z,8.82
2023-02-17T11:41:24.537Z,10.35
2023-02-17T11:43:28.646Z,10.25
2023-02-17T11:45:44.121Z,10.57
2023-02-17T11:48:25.764Z,11.80
2023-02-17T11:50:41.173Z,11.10
2023-02-17T11:52:49.692Z,11.48
2023-02-17T11:55:12.185Z,10.45
2023-02-17T11:57:45.670Z,11.13
2023-02-17T12:00:10.312Z,10.63
2023-02-17T12:02:18.183Z,10.55
2023-02-17T12:04:27.800Z,10.98
2023-02-17T12:07:01.425Z,9.73
2023-02-17T12:09:27.346Z,10.55
2023-02-17T12:11:41.410Z,10.48
2023-02-17T12:13:54.798Z,10.57
2023-02-17T12:16:12.867Z,10.50
2023-02-17T12:18:20.147Z,9.63
2023-02-17T12:20:45.787Z,9.93
2023-02-17T12:23:15.836Z,9.93
2023-02-17T12:25:28.899Z,8.82
2023-02-17T12:27:42.148Z,8.20
2023-02-17T12:29:43.686Z,9.43
2023-02-17T12:31:54.420Z,9.10
2023-02-17T12:34:07.351Z,8.70
2023-02-17T12:36:12.812Z,9.07
2023-02-17T12:38:18.774Z,8.48
2023-02-17T12:40:37.589Z,8.15
2023-02-17T12:42:48.215Z,7.43
2023-02-17T12:44:53.931Z,7.40
2023-02-17T12:46:59.852Z,9.10
2023-02-17T12:49:26.022Z,6.90
2023-02-17T12:51:40.307Z,6.90
2023-02-17T12:53:54.681Z,6.13
2023-02-17T12:55:59.286Z,5.30
2023-02-17T12:58:08.040Z,6.15
2023-02-17T13:00:36.430Z,5.72
2023-02-17T13:02:37.993Z,4.63
2023-02-17T13:04:42.504Z,4.63
2023-02-17T13:06:51.553Z,4.45
2023-02-17T13:09:08.933Z,3.97
2023-02-17T13:11:14.152Z,4.20
2023-02-17T13:13:30.328Z,4.65
2023-02-17T13:15:46.198Z,4.05
2023-02-17T13:18:01.252Z,4.03
2023-02-17T13:20:05.519Z,4.32
2023-02-17T13:22:07.012Z,4.85
2023-02-17T13:24:30.732Z,4.72
2023-02-17T13:26:37.260Z,4.75
2023-02-17T13:28:40.739Z,4.03
2023-02-17T13:30:45.183Z,4.47
2023-02-17T13:32:46.880Z,4.53
2023-02-17T13:35:00.487Z,4.78
2023-02-17T13:37:32.595Z,5.13
2023-02-17T13:39:35.940Z,4.20
2023-02-17T13:41:48.425Z,4.03
2023-02-17T13:43:49.906Z,4.63
2023-02-17T13:46:05.952Z,4.03
2023-02-17T13:48:13.146Z,4.35
2023-02-17T13:50:30.534Z,4.50
2023-02-17T13:52:32.376Z,4.10
2023-02-17T13:54:33.831Z,3.70
2023-02-17T13:56:35.317Z,4.07
2023-02-17T13:58:42.652Z,3.53
2023-02-17T14:00:44.192Z,3.50
2023-02-17T14:02:49.842Z,3.30
2023-02-17T14:04:53.364Z,3.50
2023-02-17T14:07:03.425Z,3.22
2023-02-17T14:09:24.595Z,2.35
2023-02-17T14:11:28.804Z,2.83
2023-02-17T14:13:30.952Z,3.47
2023-02-17T14:15:32.703Z,2.78
2023-02-17T14:17:34.309Z,2.15
2023-02-17T14:19:45.675Z,2.90
2023-02-17T14:22:04.855Z,2.70
2023-02-17T14:24:06.750Z,2.72
2023-02-17T14:26:26.112Z,2.83
2023-02-17T14:28:28.475Z,3.22
2023-02-17T14:30:39.393Z,2.35
2023-02-17T14:32:40.949Z,2.10
2023-02-17T14:34:42.377Z,2.50
2023-02-17T14:36:43.962Z,2.42
2023-02-17T14:38:55.311Z,2.60
2023-02-17T14:40:56.897Z,1.98
2023-02-17T14:42:58.343Z,2.47
2023-02-17T14:44:59.798Z,2.20
2023-02-17T14:47:01.289Z,2.70
2023-02-17T14:49:02.940Z,2.17
2023-02-17T14:51:12.533Z,2.10
2023-02-17T14:53:36.478Z,2.60
2023-02-17T14:55:45.610Z,2.10
2023-02-17T14:57:47.182Z,2.00
2023-02-17T14:59:48.634Z,1.80
2023-02-17T15:01:50.114Z,1.95
2023-02-17T15:03:53.102Z,1.98
2023-02-17T15:05:55.312Z,1.48
2023-02-17T15:07:59.727Z,1.55
2023-02-17T15:10:01.179Z,1.52
2023-02-17T15:12:02.921Z,1.70
2023-02-17T15:14:04.953Z,2.22
2023-02-17T15:16:08.161Z,1.92
2023-02-17T15:18:09.991Z,2.17
2023-02-17T15:20:13.506Z,1.70
2023-02-17T15:22:15.062Z,1.92
2023-02-17T15:24:27.279Z,2.20
2023-02-17T15:26:30.927Z,1.92
2023-02-17T15:28:32.390Z,2.13
2023-02-17T15:30:35.955Z,1.83
2023-02-17T15:32:37.688Z,1.30
2023-02-17T15:34:39.137Z,1.65
2023-02-17T15:36:40.612Z,1.60
2023-02-17T15:38:42.856Z,1.40
2023-02-17T15:40:44.399Z,1.38
2023-02-17T15:42:49.901Z,0.85
2023-02-17T15:44:52.545Z,1.15
2023-02-17T15:46:55.535Z,1.65
2023-02-17T15:48:57.162Z,1.30
2023-02-17T15:50:58.668Z,1.48
2023-02-17T15:53:00.156Z,1.38
2023-02-17T15:55:01.640Z,1.05
2023-02-17T15:57:03.890Z,2.42
2023-02-17T15:59:11.788Z,1.60
2023-02-17T16:01:31.001Z,1.48
2023-02-17T16:03:32.666Z,2.05
2023-02-17T16:05:34.188Z,1.50
2023-02-17T16:07:37.553Z,1.60
2023-02-17T16:09:39.956Z,1.73
2023-02-17T16:11:51.313Z,1.60
2023-02-17T16:13:52.912Z,1.80
2023-02-17T16:15:57.673Z,1.70
2023-02-17T16:17:59.904Z,2.13
2023-02-17T16:20:01.438Z,1.63
2023-02-17T16:22:02.970Z,1.60
2023-02-17T16:24:04.544Z,1.67
2023-02-17T16:26:15.380Z,1.90
2023-02-17T16:28:22.013Z,1.52
2023-02-17T16:30:32.342Z,2.05
2023-02-17T16:32:35.061Z,2.13
2023-02-17T16:34:36.958Z,1.70
2023-02-17T16:36:39.092Z,1.77
2023-02-17T16:38:40.580Z,2.00
2023-02-17T16:40:47.396Z,1.92
2023-02-17T16:42:49.189Z,1.90
2023-02-17T16:44:50.665Z,1.33
2023-02-17T16:46:55.051Z,1.85
2023-02-17T16:49:01.586Z,2.08
2023-02-17T16:51:03.062Z,1.60
2023-02-17T16:53:08.700Z,1.60
2023-02-17T16:55:18.466Z,1.80
2023-02-17T16:57:21.026Z,2.85
2023-02-17T16:59:24.686Z,1.83
2023-02-17T17:01:26.211Z,1.58
2023-02-17T17:03:27.748Z,1.70
2023-02-17T17:05:29.601Z,1.75
2023-02-17T17:07:32.097Z,2.03
2023-02-17T17:09:33.647Z,2.58
2023-02-17T17:11:35.201Z,2.55
2023-02-17T17:13:36.658Z,2.08
2023-02-17T17:15:41.777Z,2.88
2023-02-17T17:17:47.523Z,1.80
2023-02-17T17:19:48.967Z,1.55
2023-02-17T17:21:50.541Z,1.92
2023-02-17T17:23:52.640Z,2.05
2023-02-17T17:25:55.142Z,2.20
2023-02-17T17:27:57.947Z,1.70
2023-02-17T17:29:59.473Z,1.95
2023-02-17T17:32:01.142Z,2.03
2023-02-17T17:34:02.750Z,1.83
2023-02-17T17:36:13.309Z,2.05
2023-02-17T17:38:16.316Z,1.52
2023-02-17T17:40:24.559Z,4.10
2023-02-17T17:42:26.045Z,3.70
2023-02-17T17:44:28.325Z,2.10
2023-02-17T17:46:32.002Z,1.95
2023-02-17T17:48:33.490Z,2.03
2023-02-17T17:50:34.983Z,3.72
2023-02-17T17:52:36.598Z,2.30
2023-02-17T17:54:38.062Z,2.50
2023-02-17T17:56:44.855Z,2.55
2023-02-17T17:58:46.537Z,2.35
2023-02-17T18:00:48.036Z,3.10
2023-02-17T18:02:49.508Z,2.30
2023-02-17T18:04:51.002Z,4.72
2023-02-17T18:06:55.580Z,3.13
2023-02-17T18:09:02.798Z,3.03
2023-02-17T18:11:04.399Z,2.10
2023-02-17T18:13:12.397Z,2.33
2023-02-17T18:15:14.808Z,3.83
2023-02-17T18:17:18.122Z,3.88
2023-02-17T18:19:20.170Z,3.47
2023-02-17T18:21:21.784Z,6.00
2023-02-17T18:23:23.324Z,8.82
2023-02-17T18:25:25.175Z,6.95
2023-02-17T18:27:26.686Z,3.00
2023-02-17T18:29:28.216Z,2.90
2023-02-17T18:31:29.907Z,2.30
2023-02-17T18:33:31.418Z,2.53
2023-02-17T18:35:37.139Z,2.53
2023-02-17T18:37:40.872Z,3.67
2023-02-17T18:39:42.365Z,2.63
2023-02-17T18:41:43.837Z,2.47
2023-02-17T18:43:45.335Z,2.42
2023-02-17T18:45:48.980Z,2.65
2023-02-17T18:47:50.515Z,2.83
2023-02-17T18:49:52.481Z,2.47
2023-02-17T18:51:54.668Z,3.10
2023-02-17T18:53:58.390Z,2.67
2023-02-17T18:55:59.898Z,2.50
2023-02-17T18:58:01.351Z,2.08
2023-02-17T19:00:04.306Z,3.42
2023-02-17T19:02:10.674Z,2.22
2023-02-17T19:04:13.033Z,2.60
2023-02-17T19:06:17.731Z,3.20
2023-02-17T19:08:19.204Z,2.47
2023-02-17T19:10:21.352Z,2.78
2023-02-17T19:12:22.835Z,3.05
2023-02-17T19:14:24.339Z,2.42
2023-02-17T19:16:28.472Z,2.60
2023-02-17T19:18:29.958Z,2.33
2023-02-17T19:20:31.711Z,2.13
2023-02-17T19:22:37.084Z,2.65
2023-02-17T19:24:40.895Z,2.65
2023-02-17T19:26:44.693Z,3.78
2023-02-17T19:28:46.411Z,2.42
2023-02-17T19:30:47.972Z,3.00
2023-02-17T19:32:49.444Z,2.53
2023-02-17T19:34:50.932Z,2.45
2023-02-17T19:36:52.418Z,2.53
2023-02-17T19:38:56.071Z,2.78
2023-02-17T19:40:57.554Z,2.50
2023-02-17T19:42:59.043Z,2.72
2023-02-17T19:45:00.522Z,2.97
2023-02-17T19:47:02.006Z,2.58
2023-02-17T19:49:04.612Z,2.78
2023-02-17T19:51:07.963Z,2.58
2023-02-17T19:53:09.536Z,2.70
2023-02-17T19:55:11.135Z,2.50
2023-02-17T19:57:17.343Z,3.00
2023-02-17T19:59:19.087Z,2.80
2023-02-17T20:01:32.303Z,2.47
2023-02-17T20:03:33.969Z,2.60
2023-02-17T20:05:42.160Z,2.53
2023-02-17T20:07:43.778Z,2.75
2023-02-17T20:09:45.389Z,2.72
2023-02-17T20:11:48.346Z,2.72
2023-02-17T20:13:50.566Z,2.95
2023-02-17T20:16:07.283Z,2.72
2023-02-17T20:18:09.138Z,1.83
2023-02-17T20:20:12.256Z,3.00
2023-02-17T20:22:13.958Z,5.40
2023-02-17T20:24:15.701Z,2.78
2023-02-17T20:26:21.748Z,2.50
2023-02-17T20:28:23.861Z,2.38
2023-02-17T20:30:25.433Z,3.67
2023-02-17T20:32:27.122Z,2.90
2023-02-17T20:34:35.453Z,2.72
2023-02-17T20:36:36.985Z,2.42
2023-02-17T20:38:39.543Z,2.33
2023-02-17T20:40:41.083Z,2.42
2023-02-17T20:42:42.672Z,2.20
2023-02-17T20:44:45.716Z,2.95
2023-02-17T20:46:48.193Z,2.95
2023-02-17T20:48:50.235Z,2.42
2023-02-17T20:50:51.883Z,2.75
2023-02-17T20:52:53.366Z,2.70
2023-02-17T20:54:54.911Z,2.75
2023-02-17T20:56:59.298Z,2.63
2023-02-17T20:59:01.670Z,2.83
2023-02-17T21:01:03.312Z,3.00
2023-02-17T21:03:05.471Z,2.92
2023-02-17T21:05:07.446Z,2.30
2023-02-17T21:07:10.769Z,2.72
2023-02-17T21:09:18.408Z,2.58
2023-02-17T21:11:20.317Z,2.83
2023-02-17T21:13:22.905Z,2.40
2023-02-17T21:15:25.491Z,2.55
2023-02-17T21:17:27.175Z,2.63
2023-02-17T21:19:29.742Z,2.35
2023-02-17T21:21:32.128Z,2.50
2023-02-17T21:23:34.644Z,3.00
2023-02-17T21:25:37.368Z,2.47
2023-02-17T21:27:39.253Z,2.95
2023-02-17T21:29:40.903Z,2.15
2023-02-17T21:31:42.530Z,2.28
2023-02-17T21:33:44.592Z,2.58
2023-02-17T21:35:46.302Z,2.03
2023-02-17T21:37:47.902Z,2.67
2023-02-17T21:39:49.593Z,2.33
2023-02-17T21:41:51.506Z,2.70
2023-02-17T21:44:12.666Z,2.60
2023-02-17T21:46:14.324Z,2.00
2023-02-17T21:48:16.118Z,2.53
2023-02-17T21:50:18.976Z,3.15
2023-02-17T21:52:20.684Z,2.67
2023-02-17T21:54:22.197Z,1.95
2023-02-17T21:56:23.841Z,2.22
2023-02-17T21:58:25.335Z,2.35
2023-02-17T22:00:26.926Z,2.67
2023-02-17T22:02:28.437Z,2.88
2023-02-17T22:04:30.037Z,2.72
2023-02-17T22:06:35.301Z,2.17
2023-02-17T22:08:36.785Z,2.63
2023-02-17T22:10:39.399Z,3.03
2023-02-17T22:12:40.864Z,2.88
2023-02-17T22:14:42.313Z,1.85
2023-02-17T22:16:44.433Z,2.45
2023-02-17T22:18:45.902Z,2.83
2023-02-17T22:20:47.365Z,2.58
2023-02-17T22:22:48.862Z,1.70
2023-02-17T22:24:50.363Z,1.90
2023-02-17T22:26:51.860Z,2.75
2023-02-17T22:28:54.200Z,2.63
2023-02-17T22:30:55.718Z,1.98
2023-02-17T22:32:57.264Z,2.40
2023-02-17T22:34:58.704Z,2.17
2023-02-17T22:37:00.209Z,1.77
2023-02-17T22:39:03.174Z,2.03
2023-02-17T22:41:06.918Z,2.35
2023-02-17T22:43:08.409Z,1.95
2023-02-17T22:45:09.865Z,2.25
2023-02-17T22:47:11.422Z,2.63
2023-02-17T22:49:12.971Z,2.50
2023-02-17T22:51:17.551Z,2.15
2023-02-17T22:53:19.066Z,2.22
2023-02-17T22:55:20.531Z,2.25
2023-02-17T22:57:22.010Z,2.70
2023-02-17T22:59:23.613Z,2.80
2023-02-17T23:01:25.190Z,2.75
2023-02-17T23:03:26.766Z,2.40
2023-02-17T23:05:29.474Z,1.98
2023-02-17T23:07:30.975Z,1.95
2023-02-17T23:09:32.468Z,1.88
2023-02-17T23:11:53.949Z,2.03
2023-02-17T23:13:55.670Z,1.90
2023-02-17T23:15:57.121Z,2.53
2023-02-17T23:17:58.648Z,2.00
2023-02-17T23:20:00.160Z,2.13
2023-02-17T23:22:07.775Z,2.78
2023-02-17T23:24:09.268Z,1.80
2023-02-17T23:26:10.873Z,2.13
2023-02-17T23:28:12.714Z,1.85
2023-02-17T23:30:20.501Z,2.10
2023-02-17T23:32:21.994Z,1.80
2023-02-17T23:34:23.500Z,2.35
2023-02-17T23:36:24.961Z,2.63
2023-02-17T23:38:26.496Z,2.45
2023-02-17T23:40:27.940Z,2.05
2023-02-17T23:42:29.446Z,2.05
2023-02-17T23:44:30.920Z,1.70
2023-02-17T23:46:32.418Z,2.00
2023-02-17T23:48:34.015Z,1.65
2023-02-17T23:50:35.626Z,1.85
2023-02-17T23:52:37.189Z,1.75
2023-02-17T23:54:38.663Z,2.03
2023-02-17T23:56:40.216Z,2.08
2023-02-17T23:58:41.924Z,2.70
